Airport View

Enter AWOS ICAO identifier for current METAR.

ex. KFNL

KFNL 190456Z AUTO 12005KT 10SM FEW110 08/M04 A3025 RMK AO2 SLP220 T00831039

19 Apr 2019 06:48

Frequency: 135.075

Phone: 970-669-9187

Other Area AWOS: KGXY - KLMO - KEIK - KBDU

TAF KBJC 190527Z 1906/2006 VRB05KT P6SM SCT080 BKN120 FM190800 27005KT P6SM FEW080 SCT120 FM191400 VRB05KT P6SM FEW100 FM191800 07007KT P6SM FEW100 FM192300 32010KT P6SM FEW100